Etusivu
METAR-TAF:

METAR-TAF

Lentoasemat :

Qingdao, Kiina

Leveyspiiri: 36-04N, Pituuspiiri: 120-20E, korkeus merenpinnasta: 77 m

Tämänhetkinen sää

Tämä raportti tehtiin 1 tunti ja 4 minuuttia sitten, kello 00.00 UTC
Tuuli 2 kn idästä
Lämpötila 3°C
Kosteus 93%
Ilmanpaine 1032 hPa
Näkyvyys 10 km tai enemmän
ei pilviä alle 1500 m:ssä eikä cumulonimbus-pilviä

METAR: ZSQD 200000Z 08001MPS CAVOK 03/02 Q1032 BECMG TL0130 18005MPS

Aika: 09:04 (01:04 UTC)

Sääennuste

Tämä raportti tehtiin 4 tuntia ja 1 minuuttia sitten, kello 21.03 UTC
Ennuste voimassa 20. päivästä klo 00 UTC - 20. päivään klo 24 UTC
Tuuli 10 kn etelästä
Näkyvyys: 5000 m
utua

TAF: ZSQD 192103Z 2000/2024 18005MPS 5000 BR NSC TX12/2006Z TN03/2021Z

Säähavainnot ja -ennusteet yli 4000 lentoasemalta (METAR- ja TAF-raportit).

Käytössä olevat sääasemat on merkitty karttaan keltaisilla ja punaisilla pisteillä.

Aseta hiiri pisteen päälle nähdäksesi sääaseman nimen.

Klikkaa sitten nähdäksesi säähavainnot ja -ennusteet.

Kartan vaihtaminen: klikkaa mustalla rastilla varustettuja vihreitä pisteitä, niin voit zoomata sisään; viivalla varustettua vihreää pistettä, niin voit zoomata ulos tai vihreitä nuolia, niin pääset viereisille kartoille.


METAR-TAF: